Terminal Aerodrome Forecast
Issued by NWS Jackson, MS

Current Version | Previous Version | Text Only | Print | Product List | Glossary On
Versions: 1 2 3 4 5 6 7 8 9 10 11 12 13 14 15 16 17 18
000
FTUS44 KJAN 020500
TAFGLH
TAF
KGLH 020522Z 0206/0306 00000KT 6SM BR OVC080
     FM020700 00000KT 4SM BR SCT020 OVC040
     FM021400 04006KT P6SM BKN050=

USA.gov is the U.S. government's official web portal to all federal, state and local government web resources and services.